Pagrindinis puslapis
METAR-TAF:

METAR-TAF

Oro uostai :

Varanasis, Indija

platuma: 25-27N, ilguma: 082-52E, Aukštis: 81 m

Dabartinis oras

Ataskaita buvo paskelbta 24 minutes, ne 14:30 UTC
Vėjas 2 kt iš Vakarų/Šiaurės Vakarų
Temperatūra 20°C
Drėgmė 78%
Slėgis 1014 hPa
Matomumas: 3000 m
rūkana

METAR: VEBN 191430Z 29002KT 3000 BR NSC 20/16 Q1014 NOSIG

Laikas: 20:24 (14:54 UTC)

Prognozė

Ataskaita buvo paskelbta 54 minutes, ne 14:00 UTC
Prognozė galioja nuo 19 metu 15 UTC su 19 metu 24 UTC
Vėjas 4 kt iš Vakarų
Matomumas: 2000 m
Mažai debesys ne aukštis 10000 ft
migla
Tapsmas
nuo 19 metu 18 UTC su 19 metu 20 UTC
Matomumas: 1500 m
rūkana, Sekli rūkas

TAF: VEBN 191400Z 1915/1924 27004KT 2000 HZ FEW100 BECMG 1918/1920 1500 BR MIFG

Orai ataskaitas ir orų prognozės (METAR, TAF).

turimą stotys yra geltonos ir raudonos taškus žemėlapyje.

Perkelti pele per norėdami pamatyti stoties vardą.

Tada spustelėkite, norėdami matyti oro stebėjimo ir prognozės.

Norėdami pakeisti žemėlapį: spustelėkite ant žalios mygtukų su juodo kryžiaus žemyn,; žalią mygtuką su brūkšneliu, jei norite nutolinti; arba žalių rodyklių gretimoms žemėlapius.


METAR-TAF: